Time;durP1;ratioP1;P1;durP2;ratioP2;P2;SDS_P1;SDS_P2;PMS_P1;PMS_P2;Temp;Humidity;BMP_temperature;BMP_pressure;BME280_temperature;BME280_humidity;BME280_pressure;Samples;Min_cycle;Max_cycle;Signal;HPM_P1;HPM_P2
2022/12/27 00:00:54;;;;;;;15.53;5.30;;;4.10;99.90;;;;;;5112511;28;20216;-69
2022/12/27 00:03:21;;;;;;;15.83;6.27;;;4.10;99.90;;;;;;5112161;28;20575;-69
2022/12/27 00:05:48;;;;;;;12.30;5.90;;;4.10;99.90;;;;;;5094295;28;20286;-69
2022/12/27 00:08:15;;;;;;;11.77;5.57;;;4.10;99.90;;;;;;5113036;28;20219;-68
2022/12/27 00:10:43;;;;;;;11.73;5.57;;;4.10;99.90;;;;;;5111019;28;20200;-69
2022/12/27 00:13:09;;;;;;;15.67;5.63;;;4.10;99.90;;;;;;5111916;28;20201;-69
2022/12/27 00:15:36;;;;;;;14.63;6.13;;;4.10;99.90;;;;;;5111885;28;20286;-69
2022/12/27 00:18:03;;;;;;;18.17;5.33;;;4.00;99.90;;;;;;5112289;28;20225;-69
2022/12/27 00:20:30;;;;;;;17.03;5.33;;;4.00;99.90;;;;;;5111037;28;20214;-68
2022/12/27 00:22:59;;;;;;;12.13;5.67;;;4.00;99.90;;;;;;5111645;28;20648;-68
2022/12/27 00:25:26;;;;;;;13.67;5.37;;;4.00;99.90;;;;;;5112247;28;20222;-69
2022/12/27 00:27:52;;;;;;;14.23;5.50;;;4.00;99.90;;;;;;5112139;28;20316;-70
2022/12/27 00:30:19;;;;;;;13.23;5.40;;;4.00;99.90;;;;;;5111385;28;20198;-68
2022/12/27 00:32:47;;;;;;;13.07;5.70;;;4.00;99.90;;;;;;5111707;28;20223;-68
2022/12/27 00:35:26;;;;;;;18.27;5.87;;;4.00;99.90;;;;;;5109803;28;20636;-68
2022/12/27 00:37:52;;;;;;;12.90;5.97;;;4.10;99.90;;;;;;5111925;28;20640;-68
2022/12/27 00:40:19;;;;;;;15.57;7.13;;;4.10;99.90;;;;;;5111999;28;20282;-68
2022/12/27 00:42:48;;;;;;;14.13;5.90;;;4.10;99.90;;;;;;5111568;28;20207;-68
2022/12/27 00:45:14;;;;;;;16.70;5.47;;;4.10;99.90;;;;;;5111278;28;20232;-69
2022/12/27 00:47:44;;;;;;;12.27;5.50;;;4.10;99.90;;;;;;5111431;28;20212;-68
2022/12/27 00:50:11;;;;;;;15.40;6.10;;;4.10;99.90;;;;;;5090702;28;20245;-69
2022/12/27 00:52:40;;;;;;;16.83;6.13;;;4.10;99.90;;;;;;5110059;28;20229;-68
2022/12/27 00:55:08;;;;;;;11.20;5.30;;;4.10;99.90;;;;;;5111018;28;20290;-69
2022/12/27 00:57:35;;;;;;;12.23;5.20;;;4.10;99.90;;;;;;5110042;28;20644;-68
2022/12/27 01:00:05;;;;;;;14.97;6.63;;;4.10;99.90;;;;;;5093460;28;20682;-68
2022/12/27 01:02:36;;;;;;;13.97;6.00;;;4.10;99.90;;;;;;5108990;28;20223;-68
2022/12/27 01:05:03;;;;;;;15.83;5.67;;;4.20;99.90;;;;;;5111684;28;20363;-69
2022/12/27 01:07:30;;;;;;;15.63;5.37;;;4.20;99.90;;;;;;5111200;28;20673;-68
2022/12/27 01:09:56;;;;;;;15.97;5.77;;;4.20;99.90;;;;;;5111465;28;20270;-69
2022/12/27 01:12:23;;;;;;;17.33;5.73;;;4.20;99.90;;;;;;5107702;28;20574;-69
2022/12/27 01:14:50;;;;;;;11.57;5.60;;;4.20;99.90;;;;;;5093819;28;20317;-69
2022/12/27 01:17:16;;;;;;;14.20;5.90;;;4.20;99.90;;;;;;5110892;28;20262;-70
2022/12/27 01:19:43;;;;;;;18.77;5.80;;;4.20;99.90;;;;;;5108119;28;20294;-69
2022/12/27 01:22:10;;;;;;;13.67;6.00;;;4.20;99.90;;;;;;5110473;28;20209;-69
2022/12/27 01:24:37;;;;;;;16.17;5.60;;;4.20;99.90;;;;;;5109210;28;20579;-69
2022/12/27 01:27:03;;;;;;;14.63;5.63;;;4.20;99.90;;;;;;5110700;28;20345;-69
2022/12/27 01:29:30;;;;;;;15.00;6.13;;;4.20;99.90;;;;;;5110370;28;20244;-69
2022/12/27 01:31:57;;;;;;;18.47;5.80;;;4.20;99.90;;;;;;5110707;28;20211;-69
2022/12/27 01:34:24;;;;;;;12.87;5.63;;;4.30;99.90;;;;;;5111285;28;20230;-69
2022/12/27 01:36:50;;;;;;;14.57;6.00;;;4.40;99.90;;;;;;5111092;28;20233;-69
2022/12/27 01:39:17;;;;;;;13.33;5.50;;;4.40;99.90;;;;;;5107665;28;20683;-69
2022/12/27 01:44:42;;;;;;;12.20;5.30;;;4.60;99.90;;;;;;5109676;28;20234;-68
2022/12/27 01:47:15;;;;;;;14.00;5.70;;;4.70;99.90;;;;;;5111171;28;20246;-68
2022/12/27 01:49:52;;;;;;;14.17;5.63;;;4.70;99.90;;;;;;5109304;28;20330;-69
2022/12/27 01:52:19;;;;;;;10.80;5.57;;;4.70;99.90;;;;;;5110286;28;20673;-69
2022/12/27 01:54:46;;;;;;;13.90;5.90;;;4.70;99.90;;;;;;5110348;28;20306;-69
2022/12/27 01:57:13;;;;;;;11.67;5.70;;;4.70;99.90;;;;;;5109256;28;20725;-69
2022/12/27 01:59:41;;;;;;;15.57;6.20;;;4.70;99.90;;;;;;5110529;28;20200;-69
2022/12/27 02:02:07;;;;;;;13.83;5.47;;;4.60;99.90;;;;;;5091319;28;20220;-70
2022/12/27 02:04:34;;;;;;;13.03;5.53;;;4.60;99.90;;;;;;5109740;28;20677;-69
2022/12/27 02:07:01;;;;;;;16.67;6.00;;;4.50;99.90;;;;;;5110334;28;20735;-69
2022/12/27 02:09:41;;;;;;;14.77;5.10;;;4.50;99.90;;;;;;5110034;28;20230;-69
2022/12/27 02:12:09;;;;;;;14.13;5.20;;;4.50;99.90;;;;;;5090901;28;20240;-69
2022/12/27 02:14:45;;;;;;;14.40;5.20;;;4.50;99.90;;;;;;5109304;28;20267;-69
2022/12/27 02:17:22;;;;;;;14.67;4.97;;;4.50;99.90;;;;;;5110419;28;20309;-69
2022/12/27 02:20:12;;;;;;;12.37;4.40;;;4.50;99.90;;;;;;5108532;28;20215;-69
2022/12/27 02:26:05;;;;;;;8.73;4.37;;;4.40;99.90;;;;;;5109296;28;20232;-69
2022/12/27 02:28:56;;;;;;;12.87;4.30;;;4.50;99.90;;;;;;5106670;28;20202;-69
2022/12/27 02:31:38;;;;;;;14.20;4.37;;;4.50;99.90;;;;;;5107139;28;20614;-68
2022/12/27 02:34:13;;;;;;;16.87;5.67;;;4.50;99.90;;;;;;5091848;28;20295;-68
2022/12/27 02:36:43;;;;;;;11.33;5.40;;;4.60;99.90;;;;;;5109530;28;20211;-70
2022/12/27 02:39:11;;;;;;;14.23;6.70;;;4.50;99.90;;;;;;5106658;28;20214;-69
2022/12/27 02:53:36;;;;;;;15.73;7.13;;;4.50;99.90;;;;;;5108958;28;20650;-68
2022/12/27 02:59:35;;;;;;;17.00;6.63;;;4.40;99.90;;;;;;5109942;28;20211;-68
2022/12/27 03:05:11;;;;;;;10.73;6.37;;;4.30;99.90;;;;;;5109008;28;20305;-68
2022/12/27 03:07:46;;;;;;;8.80;5.70;;;4.30;99.90;;;;;;5109453;28;20291;-68
2022/12/27 03:16:33;;;;;;;12.77;6.40;;;4.40;99.90;;;;;;5109578;28;20310;-69
2022/12/27 03:25:26;;;;;;;14.10;7.43;;;4.50;99.90;;;;;;5109463;28;20209;-69
2022/12/27 03:27:35;;;;;;;14.27;6.47;;;4.40;99.90;;;;;;5092801;28;20204;-68
2022/12/27 03:33:13;;;;;;;12.23;6.90;;;4.40;99.90;;;;;;5105014;28;20653;-68
2022/12/27 03:38:47;;;;;;;15.17;6.77;;;4.40;99.90;;;;;;5108505;28;20287;-68
2022/12/27 03:44:24;;;;;;;12.40;6.73;;;4.30;99.90;;;;;;5105943;28;20205;-69
2022/12/27 03:47:02;;;;;;;18.93;7.40;;;4.30;99.90;;;;;;5106138;28;20218;-69
2022/12/27 03:49:40;;;;;;;18.33;7.40;;;4.30;99.90;;;;;;5110290;28;20231;-69
2022/12/27 03:52:22;;;;;;;19.10;6.63;;;4.30;99.90;;;;;;5112900;28;20223;-68
2022/12/27 03:54:50;;;;;;;18.93;6.43;;;4.30;99.90;;;;;;5112180;28;20302;-69
2022/12/27 03:57:20;;;;;;;12.27;5.97;;;4.30;99.90;;;;;;5110786;28;20225;-69
2022/12/27 03:59:47;;;;;;;17.10;6.70;;;4.30;99.90;;;;;;5112219;28;20707;-68
2022/12/27 04:02:14;;;;;;;20.93;6.50;;;4.30;99.90;;;;;;5109653;28;20406;-69
2022/12/27 04:04:41;;;;;;;15.20;6.50;;;4.30;99.90;;;;;;5111881;28;20723;-69
2022/12/27 04:07:08;;;;;;;13.10;6.03;;;4.30;99.90;;;;;;5112899;28;20318;-69
2022/12/27 04:37:26;;;;;;;19.20;6.70;;;4.40;99.90;;;;;;5047067;28;20317;-69
2022/12/27 04:56:30;;;;;;;18.37;7.43;;;4.20;99.90;;;;;;5110486;28;20686;-69
2022/12/27 05:04:28;;;;;;;18.33;8.10;;;4.10;99.90;;;;;;5109811;28;20674;-68
2022/12/27 05:06:56;;;;;;;21.80;7.60;;;4.10;99.90;;;;;;5111342;28;20292;-69
2022/12/27 05:14:55;;;;;;;24.30;7.77;;;4.10;99.90;;;;;;5111217;28;20234;-68
2022/12/27 05:17:22;;;;;;;16.20;7.33;;;4.00;99.90;;;;;;5111368;28;20281;-68
2022/12/27 05:19:48;;;;;;;20.30;8.07;;;4.00;99.90;;;;;;5106979;28;20255;-69
2022/12/27 05:25:46;;;;;;;18.90;7.90;;;4.00;99.90;;;;;;5110418;28;20324;-68
2022/12/27 05:27:47;;;;;;;21.40;7.53;;;4.00;99.90;;;;;;5096769;28;20239;-69
2022/12/27 05:30:14;;;;;;;19.30;8.23;;;4.00;99.90;;;;;;5110627;28;20323;-68
2022/12/27 05:32:40;;;;;;;21.73;8.17;;;4.00;99.90;;;;;;5110665;28;20306;-69
2022/12/27 05:35:07;;;;;;;22.67;8.10;;;4.00;99.90;;;;;;5107836;28;20291;-70
2022/12/27 05:37:34;;;;;;;16.90;8.30;;;4.00;99.90;;;;;;5110037;28;20227;-70
2022/12/27 05:40:01;;;;;;;24.67;8.63;;;4.00;99.90;;;;;;5111099;28;20207;-68
2022/12/27 05:42:28;;;;;;;18.67;9.00;;;4.00;99.90;;;;;;5092328;28;20688;-68
2022/12/27 05:44:54;;;;;;;18.73;8.37;;;4.00;99.90;;;;;;5111024;28;20231;-68
2022/12/27 05:47:21;;;;;;;23.60;8.27;;;3.90;99.90;;;;;;5110699;28;20229;-68
2022/12/27 05:49:48;;;;;;;26.77;9.10;;;4.00;99.90;;;;;;5110509;28;20353;-68
2022/12/27 05:52:14;;;;;;;23.27;8.70;;;3.90;99.90;;;;;;5107790;28;20265;-69
2022/12/27 05:54:41;;;;;;;22.70;8.83;;;3.90;99.90;;;;;;5110234;28;20203;-69
2022/12/27 05:57:08;;;;;;;20.07;8.93;;;3.90;99.90;;;;;;5105392;28;20349;-69
2022/12/27 05:59:34;;;;;;;19.20;9.20;;;3.90;99.90;;;;;;5109955;28;20616;-70
2022/12/27 06:02:01;;;;;;;19.67;8.67;;;3.90;99.90;;;;;;5091768;28;20252;-69
2022/12/27 06:04:28;;;;;;;23.20;9.50;;;3.90;99.90;;;;;;5108767;28;20611;-69
2022/12/27 06:06:55;;;;;;;25.97;9.87;;;3.90;99.90;;;;;;5110060;28;20211;-69
2022/12/27 06:09:21;;;;;;;28.33;10.07;;;4.00;99.90;;;;;;5110551;28;20282;-69
2022/12/27 06:11:48;;;;;;;22.33;9.87;;;4.00;99.90;;;;;;5109477;28;20299;-68
2022/12/27 06:14:15;;;;;;;29.17;10.27;;;4.00;99.90;;;;;;5109164;28;20282;-69
2022/12/27 06:16:42;;;;;;;20.00;10.17;;;4.00;99.90;;;;;;5110376;28;20241;-69
2022/12/27 06:19:09;;;;;;;25.77;9.77;;;4.00;99.90;;;;;;5109537;28;20286;-68
2022/12/27 06:21:35;;;;;;;26.53;9.47;;;4.00;99.90;;;;;;5092338;28;20205;-69
2022/12/27 06:24:02;;;;;;;26.70;9.33;;;4.00;99.90;;;;;;5108663;28;20510;-68
2022/12/27 06:26:29;;;;;;;26.97;10.17;;;4.00;99.90;;;;;;5092181;28;20260;-68
2022/12/27 06:28:57;;;;;;;24.20;10.23;;;4.00;99.90;;;;;;5109698;28;20284;-68
2022/12/27 06:31:25;;;;;;;20.30;10.27;;;4.00;99.90;;;;;;5109822;28;20239;-69
2022/12/27 06:33:52;;;;;;;24.57;11.83;;;4.10;99.90;;;;;;5109653;28;20565;-68
2022/12/27 06:36:21;;;;;;;23.67;9.97;;;4.10;99.90;;;;;;5109810;28;20307;-67
2022/12/27 06:38:48;;;;;;;23.27;9.77;;;4.20;99.90;;;;;;5105399;28;20193;-69
2022/12/27 06:41:17;;;;;;;22.53;9.10;;;4.20;99.90;;;;;;5110413;28;20205;-69
2022/12/27 06:43:45;;;;;;;24.03;9.80;;;4.20;99.90;;;;;;5107770;28;20292;-68
2022/12/27 06:46:14;;;;;;;17.83;9.40;;;4.20;99.90;;;;;;5107316;28;20217;-68
2022/12/27 06:48:46;;;;;;;22.97;9.47;;;4.20;99.90;;;;;;5108678;28;20198;-69
2022/12/27 06:51:16;;;;;;;21.37;9.10;;;4.20;99.90;;;;;;5109803;28;20641;-69
2022/12/27 06:53:42;;;;;;;26.73;9.87;;;4.20;99.90;;;;;;5090000;28;20290;-68
2022/12/27 06:56:11;;;;;;;17.70;8.37;;;4.20;99.90;;;;;;5109495;28;20631;-69
2022/12/27 06:58:38;;;;;;;17.60;8.93;;;4.20;99.90;;;;;;5108898;28;20199;-69
2022/12/27 07:01:13;;;;;;;19.00;9.03;;;4.20;99.90;;;;;;5110055;28;20219;-69
2022/12/27 07:03:40;;;;;;;22.27;9.37;;;4.20;99.90;;;;;;5106879;28;20682;-68
2022/12/27 07:06:10;;;;;;;26.90;9.50;;;4.20;99.90;;;;;;5109856;28;20625;-69
2022/12/27 07:08:37;;;;;;;22.70;9.03;;;4.10;99.90;;;;;;5091732;28;20200;-69
2022/12/27 07:11:06;;;;;;;22.43;8.73;;;4.10;99.90;;;;;;5088879;28;20318;-69
2022/12/27 07:13:35;;;;;;;19.37;9.20;;;4.10;99.90;;;;;;5108341;28;20591;-69
2022/12/27 07:16:12;;;;;;;21.13;9.10;;;4.10;99.90;;;;;;5109153;28;20699;-69
2022/12/27 07:18:48;;;;;;;19.63;8.83;;;4.10;99.90;;;;;;5109490;28;20210;-69
2022/12/27 07:21:22;;;;;;;21.30;9.20;;;4.10;99.90;;;;;;5109239;28;20285;-70
2022/12/27 07:23:49;;;;;;;25.20;10.37;;;4.10;99.90;;;;;;5109718;28;20195;-69
2022/12/27 07:26:22;;;;;;;23.97;9.73;;;4.10;99.90;;;;;;5112342;28;20203;-69
2022/12/27 07:28:52;;;;;;;23.13;9.33;;;4.10;99.90;;;;;;5110020;28;20272;-68
2022/12/27 07:31:23;;;;;;;19.03;9.73;;;4.10;99.90;;;;;;5113038;28;20231;-68
2022/12/27 07:33:50;;;;;;;25.77;10.53;;;4.00;99.90;;;;;;5109562;28;20206;-68
2022/12/27 07:36:23;;;;;;;17.60;9.23;;;4.00;99.90;;;;;;5113316;28;20696;-69
2022/12/27 07:38:51;;;;;;;29.27;11.03;;;4.00;99.90;;;;;;5109257;28;20195;-68
2022/12/27 07:41:19;;;;;;;21.40;9.57;;;4.00;99.90;;;;;;5113108;28;20294;-67
2022/12/27 07:43:46;;;;;;;20.60;10.17;;;4.00;99.90;;;;;;5111324;28;20679;-69
2022/12/27 07:46:18;;;;;;;24.10;11.97;;;4.00;99.90;;;;;;5109098;28;21155;-68
2022/12/27 07:48:46;;;;;;;21.03;11.77;;;3.90;99.90;;;;;;5111376;28;20214;-68
2022/12/27 07:51:14;;;;;;;19.53;9.77;;;3.90;99.90;;;;;;5112674;28;20543;-69
2022/12/27 07:53:41;;;;;;;19.67;11.13;;;3.90;99.90;;;;;;5110941;28;20218;-68
2022/12/27 07:56:11;;;;;;;24.20;10.43;;;3.90;99.90;;;;;;5111499;28;20203;-68
2022/12/27 07:58:40;;;;;;;25.87;11.20;;;3.90;99.90;;;;;;5110795;28;20200;-69
2022/12/27 08:01:08;;;;;;;27.33;11.73;;;3.90;99.90;;;;;;5112788;28;20223;-68
2022/12/27 08:03:36;;;;;;;22.10;10.50;;;3.80;99.90;;;;;;5111690;28;20195;-68
2022/12/27 08:06:03;;;;;;;23.17;11.90;;;3.80;99.90;;;;;;5111910;28;20653;-68
2022/12/27 08:08:40;;;;;;;25.63;11.33;;;3.90;99.90;;;;;;5106253;28;20283;-68
2022/12/27 08:11:07;;;;;;;25.00;10.60;;;3.80;99.90;;;;;;5108642;28;20318;-69
2022/12/27 08:13:34;;;;;;;24.23;11.13;;;3.90;99.90;;;;;;5105291;28;20183;-69
2022/12/27 08:16:01;;;;;;;24.37;10.90;;;3.90;99.90;;;;;;5106258;28;20306;-69
2022/12/27 08:18:30;;;;;;;20.93;10.80;;;3.90;99.90;;;;;;5111589;28;20217;-68
2022/12/27 08:21:00;;;;;;;25.03;11.70;;;3.90;99.90;;;;;;5106818;28;20191;-69
2022/12/27 08:23:27;;;;;;;25.40;11.07;;;3.90;99.90;;;;;;5110297;28;20641;-68
2022/12/27 08:25:53;;;;;;;27.33;11.47;;;3.90;99.90;;;;;;5089715;28;20238;-69
2022/12/27 08:28:20;;;;;;;30.00;11.10;;;3.90;99.90;;;;;;5112229;28;20302;-69
2022/12/27 08:30:47;;;;;;;24.57;9.70;;;4.00;99.90;;;;;;5111697;28;20277;-68
2022/12/27 08:33:14;;;;;;;25.33;11.30;;;4.00;99.90;;;;;;5108435;28;20589;-67
2022/12/27 08:35:43;;;;;;;25.33;10.57;;;3.90;99.90;;;;;;5111349;28;20259;-67
2022/12/27 08:38:20;;;;;;;27.33;10.90;;;4.00;99.90;;;;;;5109217;28;20646;-69
2022/12/27 08:40:47;;;;;;;27.03;10.37;;;4.00;99.90;;;;;;5111834;28;20202;-67
2022/12/27 08:43:14;;;;;;;27.43;10.93;;;4.00;99.90;;;;;;5112206;28;20228;-69
2022/12/27 08:45:40;;;;;;;25.83;10.57;;;4.10;99.90;;;;;;5093827;28;20204;-68
2022/12/27 08:48:07;;;;;;;29.23;11.63;;;4.10;99.90;;;;;;5112342;28;20249;-71
2022/12/27 08:50:34;;;;;;;26.13;9.67;;;4.10;99.90;;;;;;5111847;28;20802;-69
2022/12/27 08:53:03;;;;;;;18.47;9.23;;;4.20;99.90;;;;;;5112225;28;20625;-69
2022/12/27 08:55:30;;;;;;;30.87;12.47;;;4.20;99.90;;;;;;5107129;28;20331;-68
2022/12/27 08:58:01;;;;;;;24.63;9.60;;;4.20;99.90;;;;;;5111566;28;20301;-69
2022/12/27 09:00:28;;;;;;;20.23;9.53;;;4.20;99.90;;;;;;5109986;28;20230;-68
2022/12/27 09:02:55;;;;;;;17.73;9.23;;;4.20;99.90;;;;;;5093954;28;20263;-69
2022/12/27 09:05:23;;;;;;;22.97;8.97;;;4.30;99.90;;;;;;5110413;28;20204;-69
2022/12/27 09:07:51;;;;;;;22.77;9.20;;;4.30;99.90;;;;;;5111835;28;20206;-69
2022/12/27 09:10:20;;;;;;;16.83;10.00;;;4.30;99.90;;;;;;5092950;28;20591;-69
2022/12/27 09:12:47;;;;;;;18.70;8.50;;;4.40;99.90;;;;;;5107405;28;20551;-69
2022/12/27 09:15:14;;;;;;;21.90;8.53;;;4.40;99.90;;;;;;5111592;28;20623;-68
2022/12/27 09:17:41;;;;;;;28.07;10.10;;;4.40;99.90;;;;;;5111393;28;20692;-69
2022/12/27 09:20:11;;;;;;;20.47;8.90;;;4.40;99.90;;;;;;5111581;28;20316;-68
2022/12/27 09:22:38;;;;;;;26.07;10.00;;;4.40;99.90;;;;;;5110307;28;20637;-68
2022/12/27 09:25:06;;;;;;;38.37;20.83;;;4.50;99.90;;;;;;5111320;28;20215;-68
2022/12/27 09:27:35;;;;;;;66.57;37.40;;;4.50;99.90;;;;;;5110496;28;20203;-67
2022/12/27 09:30:04;;;;;;;36.60;20.30;;;4.60;99.90;;;;;;5091620;28;20205;-69
2022/12/27 09:32:31;;;;;;;29.37;15.03;;;4.60;99.90;;;;;;5110604;28;20240;-69
2022/12/27 09:34:58;;;;;;;34.17;16.60;;;4.60;99.90;;;;;;5107218;28;20250;-69
2022/12/27 09:37:24;;;;;;;45.30;12.40;;;4.70;99.90;;;;;;5093220;28;20267;-67
2022/12/27 09:39:51;;;;;;;24.93;10.43;;;4.70;99.90;;;;;;5092464;28;20210;-68
2022/12/27 09:42:28;;;;;;;24.23;10.57;;;4.80;99.90;;;;;;5110359;28;20652;-69
2022/12/27 09:45:16;;;;;;;21.80;11.30;;;4.70;99.90;;;;;;5108988;28;20715;-68
2022/12/27 09:47:57;;;;;;;21.07;11.50;;;4.70;99.90;;;;;;5106064;28;20249;-68
2022/12/27 09:50:32;;;;;;;23.27;10.93;;;4.80;99.90;;;;;;5108178;28;20244;-69
2022/12/27 09:53:16;;;;;;;22.43;12.30;;;4.80;99.90;;;;;;5110860;28;20402;-68
2022/12/27 09:55:56;;;;;;;26.63;12.87;;;4.80;99.90;;;;;;5108939;28;20316;-69
2022/12/27 09:58:48;;;;;;;29.03;13.07;;;4.80;99.90;;;;;;5091153;28;20245;-69
2022/12/27 10:01:32;;;;;;;28.60;13.87;;;4.80;99.90;;;;;;5109995;28;20265;-69
2022/12/27 10:04:00;;;;;;;25.33;14.13;;;4.90;99.90;;;;;;5110274;28;20295;-68
2022/12/27 10:06:48;;;;;;;27.40;14.53;;;4.90;99.90;;;;;;5109217;28;20203;-68
2022/12/27 10:09:33;;;;;;;34.60;15.37;;;4.90;99.90;;;;;;5108936;28;20205;-69
2022/12/27 10:12:20;;;;;;;29.33;15.57;;;4.90;99.90;;;;;;5109163;28;20678;-69
2022/12/27 10:15:06;;;;;;;25.93;14.00;;;4.90;99.90;;;;;;5107012;28;20602;-69
2022/12/27 10:17:44;;;;;;;27.07;13.53;;;4.90;99.90;;;;;;5110500;28;20307;-69
2022/12/27 10:20:26;;;;;;;22.13;14.50;;;5.00;99.90;;;;;;5110316;28;20199;-69
2022/12/27 10:23:03;;;;;;;33.10;15.30;;;5.00;99.90;;;;;;5109954;28;20257;-69
2022/12/27 10:25:33;;;;;;;31.27;15.13;;;5.00;99.90;;;;;;5103349;28;20312;-68
2022/12/27 10:28:21;;;;;;;26.87;15.00;;;5.00;99.90;;;;;;5110249;28;20295;-68
2022/12/27 10:30:48;;;;;;;30.70;16.37;;;5.10;99.90;;;;;;5108954;28;20230;-69
2022/12/27 10:33:26;;;;;;;31.03;17.77;;;5.10;99.90;;;;;;5109899;28;20316;-69
2022/12/27 10:35:53;;;;;;;31.10;17.17;;;5.10;99.90;;;;;;5107171;28;20313;-69
2022/12/27 10:38:20;;;;;;;32.73;17.07;;;5.20;99.90;;;;;;5109469;28;20349;-69
2022/12/27 10:41:09;;;;;;;39.30;19.50;;;5.20;99.90;;;;;;5105321;28;20302;-69
2022/12/27 10:43:38;;;;;;;28.93;17.23;;;5.30;99.90;;;;;;5108610;28;20201;-68
2022/12/27 10:46:15;;;;;;;30.13;19.00;;;5.30;99.90;;;;;;5110148;28;20225;-68
2022/12/27 10:48:55;;;;;;;38.07;19.73;;;5.40;99.90;;;;;;5109347;28;20207;-69
2022/12/27 10:51:44;;;;;;;31.83;19.60;;;5.30;99.90;;;;;;5106761;28;20236;-69
2022/12/27 10:54:13;;;;;;;43.00;20.13;;;5.40;99.90;;;;;;5109942;28;20201;-68
2022/12/27 10:56:43;;;;;;;30.17;19.57;;;5.40;99.90;;;;;;5109648;28;20279;-70
2022/12/27 10:59:18;;;;;;;32.93;18.83;;;5.40;99.90;;;;;;5094596;28;20243;-69
2022/12/27 11:01:48;;;;;;;34.23;19.17;;;5.40;99.90;;;;;;5110449;28;20305;-69
2022/12/27 11:04:19;;;;;;;34.97;20.33;;;5.50;99.90;;;;;;5113851;28;20199;-70
2022/12/27 11:07:12;;;;;;;32.17;20.90;;;5.60;99.90;;;;;;5093760;28;20202;-69
2022/12/27 11:09:44;;;;;;;33.47;19.57;;;5.60;99.90;;;;;;5104658;28;20207;-69
2022/12/27 11:12:20;;;;;;;32.70;20.23;;;5.70;99.90;;;;;;5112007;28;20220;-68
2022/12/27 11:14:53;;;;;;;30.93;18.33;;;5.80;99.90;;;;;;5113912;28;20272;-69
2022/12/27 11:17:41;;;;;;;32.00;18.53;;;5.90;99.90;;;;;;5113283;28;20291;-69
2022/12/27 11:20:30;;;;;;;31.50;17.23;;;6.10;99.90;;;;;;5103449;28;20199;-68
2022/12/27 11:23:01;;;;;;;26.90;17.30;;;6.20;99.90;;;;;;5104170;28;20211;-67
2022/12/27 11:25:29;;;;;;;28.03;15.73;;;6.30;99.90;;;;;;5113849;28;20200;-67
2022/12/27 11:28:19;;;;;;;25.93;16.43;;;6.50;99.90;;;;;;5113826;28;20268;-69
2022/12/27 11:30:57;;;;;;;30.37;16.27;;;6.50;99.90;;;;;;5110496;28;20239;-69
2022/12/27 11:33:36;;;;;;;31.37;16.00;;;6.60;99.90;;;;;;5113494;28;20243;-69
2022/12/27 11:36:04;;;;;;;27.07;15.93;;;6.70;99.90;;;;;;5112938;28;20200;-69
2022/12/27 11:38:33;;;;;;;25.47;15.40;;;6.70;99.90;;;;;;5112990;28;20239;-68
2022/12/27 11:41:08;;;;;;;26.60;15.53;;;6.70;99.90;;;;;;5113328;28;20213;-68
2022/12/27 11:43:50;;;;;;;24.03;14.70;;;6.80;99.90;;;;;;5112124;28;20676;-68
2022/12/27 11:46:41;;;;;;;28.10;16.43;;;6.90;99.90;;;;;;5110383;28;20219;-68
2022/12/27 11:49:22;;;;;;;25.97;15.43;;;7.00;99.90;;;;;;5064628;28;20201;-68
2022/12/27 11:52:26;;;;;;;22.60;15.57;;;6.90;99.90;;;;;;5111212;28;20241;-69
2022/12/27 11:54:59;;;;;;;29.10;16.07;;;6.90;99.90;;;;;;5110293;28;20233;-69
2022/12/27 11:57:42;;;;;;;27.40;16.43;;;7.00;99.90;;;;;;5112178;28;20638;-68
2022/12/27 12:00:19;;;;;;;22.67;14.87;;;7.00;99.90;;;;;;5113171;28;20212;-69
2022/12/27 12:03:26;;;;;;;28.00;16.50;;;7.10;99.90;;;;;;5110960;28;20305;-69
2022/12/27 12:06:17;;;;;;;24.13;15.30;;;7.10;99.90;;;;;;5111496;28;20203;-69
2022/12/27 12:09:17;;;;;;;26.50;16.53;;;7.20;99.90;;;;;;5088598;28;20293;-69
2022/12/27 12:12:11;;;;;;;24.70;15.13;;;7.20;99.90;;;;;;5112402;28;20773;-69
2022/12/27 12:14:56;;;;;;;25.47;15.27;;;7.20;99.90;;;;;;5085148;28;20249;-68
2022/12/27 12:17:50;;;;;;;22.70;14.73;;;7.40;99.90;;;;;;5112023;28;20215;-68
2022/12/27 12:21:00;;;;;;;21.17;13.83;;;7.50;99.90;;;;;;5110396;28;20200;-68
2022/12/27 12:23:45;;;;;;;19.67;12.60;;;7.50;99.90;;;;;;5110770;28;20198;-68
2022/12/27 12:26:15;;;;;;;18.97;12.53;;;7.50;99.90;;;;;;5110156;28;20210;-68
2022/12/27 12:29:24;;;;;;;16.70;11.33;;;7.50;99.90;;;;;;5112188;28;20250;-68
2022/12/27 12:32:21;;;;;;;22.50;11.30;;;7.60;99.90;;;;;;5107177;28;20757;-68
2022/12/27 12:35:20;;;;;;;17.43;10.90;;;7.50;99.90;;;;;;5109560;28;20241;-69
2022/12/27 12:37:55;;;;;;;21.93;10.43;;;7.60;99.90;;;;;;5111340;28;20203;-69
2022/12/27 12:40:50;;;;;;;20.93;10.83;;;7.60;99.90;;;;;;5108609;28;20241;-68
2022/12/27 12:43:23;;;;;;;16.20;9.67;;;7.50;99.90;;;;;;5112257;28;20786;-69
2022/12/27 12:45:49;;;;;;;14.77;9.57;;;7.50;99.90;;;;;;5110313;28;20309;-71
2022/12/27 12:48:35;;;;;;;12.97;9.13;;;7.50;99.90;;;;;;5106374;28;20212;-69
2022/12/27 12:51:29;;;;;;;14.53;9.13;;;7.50;99.90;;;;;;5111763;28;20299;-68
2022/12/27 12:54:19;;;;;;;13.10;7.60;;;7.50;99.90;;;;;;5109993;28;20205;-68
2022/12/27 12:57:07;;;;;;;21.13;8.13;;;7.50;99.90;;;;;;5094070;28;20229;-68
2022/12/27 12:59:57;;;;;;;14.43;7.70;;;7.70;99.90;;;;;;5111092;28;20202;-68
2022/12/27 13:03:03;;;;;;;11.43;7.93;;;7.70;99.90;;;;;;5111516;28;20213;-69
2022/12/27 13:05:48;;;;;;;10.73;7.23;;;7.60;99.90;;;;;;5111544;28;20202;-68
2022/12/27 13:08:40;;;;;;;12.60;7.13;;;7.70;99.90;;;;;;5108592;28;20235;-68
2022/12/27 13:11:22;;;;;;;19.07;8.00;;;7.80;99.90;;;;;;5108993;28;20648;-68
2022/12/27 13:14:40;;;;;;;13.87;6.90;;;7.80;99.90;;;;;;5111895;28;20222;-69
2022/12/27 13:17:27;;;;;;;9.70;6.83;;;7.80;99.90;;;;;;5067678;28;20581;-69
2022/12/27 13:20:19;;;;;;;13.10;6.63;;;7.70;99.90;;;;;;5109783;28;20575;-67
2022/12/27 13:22:55;;;;;;;16.47;7.27;;;7.80;99.90;;;;;;5110576;28;20708;-68
2022/12/27 13:25:50;;;;;;;15.10;7.57;;;7.70;99.90;;;;;;5111747;28;20297;-69
2022/12/27 13:28:47;;;;;;;13.30;6.57;;;7.80;99.90;;;;;;5111314;28;20253;-68
2022/12/27 13:31:55;;;;;;;11.47;6.23;;;7.80;99.90;;;;;;5109302;28;20218;-68
2022/12/27 13:34:37;;;;;;;11.93;6.40;;;7.80;99.90;;;;;;5106688;28;20242;-68
2022/12/27 13:37:36;;;;;;;11.30;6.43;;;7.90;99.90;;;;;;5109138;28;20252;-70
2022/12/27 13:40:36;;;;;;;11.90;7.10;;;8.00;99.90;;;;;;5110982;28;20728;-68
2022/12/27 13:43:12;;;;;;;12.83;7.30;;;8.00;99.90;;;;;;5107605;28;20698;-68
2022/12/27 13:46:09;;;;;;;13.63;6.70;;;8.00;99.90;;;;;;5108142;28;20195;-68
2022/12/27 13:48:36;;;;;;;12.53;6.50;;;8.00;99.90;;;;;;5108273;28;20767;-68
2022/12/27 13:51:18;;;;;;;12.97;7.70;;;7.90;99.90;;;;;;5102730;28;20280;-68
2022/12/27 13:53:56;;;;;;;14.77;7.90;;;7.90;99.90;;;;;;5094405;28;20221;-68
2022/12/27 13:56:50;;;;;;;10.90;6.90;;;7.90;99.90;;;;;;5103949;28;20198;-69
2022/12/27 13:59:44;;;;;;;13.57;7.23;;;7.90;99.90;;;;;;5105361;28;20215;-68
2022/12/27 14:02:31;;;;;;;13.93;7.13;;;7.90;99.90;;;;;;5108184;28;20224;-68
2022/12/27 14:05:21;;;;;;;12.50;7.70;;;7.90;99.90;;;;;;5105182;28;20204;-68
2022/12/27 14:08:21;;;;;;;10.73;7.10;;;7.80;99.90;;;;;;5088682;28;20212;-69
2022/12/27 14:10:50;;;;;;;17.40;6.53;;;7.70;99.90;;;;;;5090039;28;20300;-69
2022/12/27 14:13:35;;;;;;;15.90;8.07;;;7.80;99.90;;;;;;5106066;28;20283;-69
2022/12/27 14:16:41;;;;;;;14.13;7.13;;;7.70;99.90;;;;;;5103660;28;20272;-69
2022/12/27 14:19:19;;;;;;;12.03;6.33;;;7.70;99.90;;;;;;5105403;28;20193;-68
2022/12/27 14:22:31;;;;;;;16.17;5.93;;;7.70;99.90;;;;;;5106861;28;20241;-68
2022/12/27 14:25:19;;;;;;;14.27;5.93;;;7.70;99.90;;;;;;5109119;28;20576;-69
2022/12/27 14:28:03;;;;;;;10.57;6.47;;;7.80;99.90;;;;;;5107449;27;20286;-70
2022/12/27 14:31:02;;;;;;;12.57;6.00;;;7.80;99.90;;;;;;5103569;28;20308;-70
2022/12/27 14:34:00;;;;;;;10.57;5.43;;;7.80;99.90;;;;;;5100700;28;20260;-69
2022/12/27 14:36:43;;;;;;;13.33;5.80;;;7.80;99.90;;;;;;5103229;28;20205;-69
2022/12/27 14:39:46;;;;;;;11.07;6.43;;;7.70;99.90;;;;;;5103826;28;20282;-69
2022/12/27 14:42:27;;;;;;;8.67;5.07;;;7.80;99.90;;;;;;5106620;28;20915;-69
2022/12/27 14:45:22;;;;;;;11.90;5.20;;;7.70;99.90;;;;;;5105736;28;20209;-69
2022/12/27 14:48:20;;;;;;;8.63;4.97;;;7.80;99.90;;;;;;5087808;28;20262;-69
2022/12/27 14:51:08;;;;;;;12.30;5.00;;;7.70;99.90;;;;;;5108910;28;20650;-69
2022/12/27 14:54:08;;;;;;;13.13;5.07;;;7.70;99.90;;;;;;5106878;28;20201;-69
2022/12/27 14:56:53;;;;;;;10.00;5.63;;;7.70;99.90;;;;;;5087608;28;20207;-68
2022/12/27 14:59:35;;;;;;;14.17;5.40;;;7.70;99.90;;;;;;5083451;28;20295;-70
2022/12/27 15:02:50;;;;;;;10.23;5.33;;;7.70;99.90;;;;;;5087428;28;20261;-68
2022/12/27 15:05:30;;;;;;;12.97;5.50;;;7.70;99.90;;;;;;5106510;28;20189;-70
2022/12/27 15:08:16;;;;;;;12.20;5.80;;;7.70;99.90;;;;;;5081772;28;20221;-69